Aérodrome :
LOGIN :

S'inscrire | Disclaimer

   EN    FR    IT 

 










Légende :    VFR   VFR Marginal   IFR   IFR Intensif   IFR Très Intensif
Visi : 
Plafond : 
>= 8 km
>= 3000ft
5 à 8 km
1000 à 3000 ft
1500m à 5 km
500 à 1000 ft
800 à 1500m
200 à 500 ft
< 800m
< 200 ft
Symboles :   Orages  Brouillard  Fortes neiges  Fortes précipitations  Vent > 20 kt
SIGMETs :   Divers  Orages  Givrage  Turbulence  Onde Orograph.  Cendres Volcan.






- Altitude de l'aérodrome : 1197 ft
- Code IATA : SPM


ETAD - Spangdahlem Ab

DERNIER METAR :
  • 260511Z AUTO 00000KT 9999 BKN080 M01/M01 A3003 RMK AO2 VIS 1600 RWY05 SLP179 $

METARs EXPIRÉS :
  • 260456Z AUTO 07003KT 3200 BR SCT080 M01/M01 A3004 RMK AO2 VIS 3200V9000 SLP183 T10111011 $
  • 260441Z AUTO 07003KT 9999 OVC080 M01/M01 A3004 RMK AO2 SLP183 $
  • 260426Z AUTO 00000KT 9999 OVC075 M01/M01 A3004 RMK AO2 SLP183 $
  • 260356Z AUTO 00000KT 9999 BR FEW000 BKN075 M01/M01 A3005 RMK AO2 VIS 3200 RWY05/23 SLP186 T10151015 $
  • 260350Z AUTO 00000KT 2200 BR SCT000 BKN075 M02/M02 A3005 RMK AO2 VIS 0400V2200 VIS 0800 RWY05/23 VIS 1400 RWY24 SLP186 $
  • 260344Z AUTO 00000KT 0600 R23/0500V1300 FZFG SCT000 BKN075 M01/M01 A3005 RMK AO2 SLP186 $
  • 260322Z AUTO 00000KT 0600 R23/0650V0900 FZFG VV000 M01/M01 A3005 RMK AO2 SLP186 $
  • 260256Z AUTO 00000KT 0600 R23/0600V0700 FZFG BKN000 OVC080 M01/M01 A3006 RMK AO2 SLP190 T10091009 57011 $
  • 260246Z AUTO 00000KT 0600 R23/0650V0900 FZFG BKN000 OVC080 M01/M01 A3006 RMK AO2 CIG 000V080 BKN V SCT SLP190 $
  • 260232Z AUTO 00000KT 1000 R23/1000V1400 BR SCT000 BKN080 M01/M01 A3006 RMK AO2 SLP190 $

TAF AMD TAF ETAD
Valide du 25 à 13h jusqu'au 26 à 13h UTC


251315Z 2513/2613 23006KT 0200 FG OVC001 QNH3014INS
BECMG 2514/2515 27006KT 0600 FG OVC002 QNH3010INS
BECMG 2518/2519 24004KT 0800 FG OVC003 QNH3000INS
BECMG 2612/2613 20010G15KT 6000 BR BKN005 OVC008 QNH2994INS TX02/2515Z TN00/2605Z



MET'MAP, la Météo Aéronautique d'un coup d'oeil ! - Copyright ORBIFLY Décembre 2007 - Disclaimer

ORBIFLY MET'MAP TEAM :

Programmation & Développement : Alexandra Zaïnal
Sur une idée originale de : Baudouin d'Aumeries
Assistance à la programmation : Marc-Olivier Méhu
Soutien technique & logistique : Manuel Goepfert

Contact : metmap@orbifly.com




SOURCES & CREDITS :

   NOAA